createdAt,value
2017-07-20T00:02:19.277Z,34.33
2017-07-20T00:04:45.967Z,33.10
2017-07-20T00:07:12.636Z,31.27
2017-07-20T00:09:39.325Z,34.40
2017-07-20T00:12:05.992Z,36.40
2017-07-20T00:14:32.675Z,38.50
2017-07-20T00:16:59.338Z,35.05
2017-07-20T00:19:26.032Z,41.35
2017-07-20T00:21:52.701Z,40.65
2017-07-20T00:24:19.396Z,38.00
2017-07-20T00:26:46.063Z,44.33
2017-07-20T00:29:12.757Z,46.80
2017-07-20T00:31:39.428Z,46.00
2017-07-20T00:34:06.121Z,59.60
2017-07-20T00:36:32.794Z,52.97
2017-07-20T00:38:59.488Z,48.83
2017-07-20T00:41:26.159Z,49.53
2017-07-20T00:43:52.855Z,53.10
2017-07-20T00:46:19.523Z,61.35
2017-07-20T00:48:46.212Z,61.60
2017-07-20T00:51:12.875Z,66.47
2017-07-20T00:53:39.572Z,78.40
2017-07-20T00:56:06.242Z,77.45
2017-07-20T00:58:32.912Z,74.57
2017-07-20T01:00:59.576Z,84.53
2017-07-20T01:03:26.248Z,92.10
2017-07-20T01:05:52.923Z,94.47
2017-07-20T01:08:19.590Z,100.30
2017-07-20T01:10:46.268Z,103.32
2017-07-20T01:13:12.933Z,86.12
2017-07-20T01:15:39.600Z,82.07
2017-07-20T01:18:06.269Z,100.32
2017-07-20T01:20:32.936Z,87.05
2017-07-20T01:22:59.600Z,88.87
2017-07-20T01:25:26.279Z,82.55
2017-07-20T01:27:52.959Z,102.55
2017-07-20T01:30:19.619Z,87.90
2017-07-20T01:32:46.288Z,85.93
2017-07-20T01:35:12.979Z,87.53
2017-07-20T01:37:39.651Z,74.07
2017-07-20T01:40:06.335Z,82.07
2017-07-20T01:42:33.003Z,84.35
2017-07-20T01:44:59.689Z,78.53
2017-07-20T01:47:26.355Z,76.12
2017-07-20T01:49:53.052Z,86.68
2017-07-20T01:52:19.724Z,94.57
2017-07-20T01:54:46.416Z,74.10
2017-07-20T01:57:13.088Z,69.43
2017-07-20T01:59:39.776Z,65.87
2017-07-20T02:02:06.450Z,64.10
2017-07-20T02:04:33.153Z,67.68
2017-07-20T02:06:59.815Z,71.30
2017-07-20T02:09:26.475Z,65.15
2017-07-20T02:11:53.143Z,58.83
2017-07-20T02:14:19.803Z,65.70
2017-07-20T02:16:46.467Z,55.05
2017-07-20T02:19:13.127Z,59.38
2017-07-20T02:21:39.787Z,51.72
2017-07-20T02:24:06.451Z,56.35
2017-07-20T02:26:33.116Z,51.13
2017-07-20T02:28:59.775Z,56.25
2017-07-20T02:31:26.436Z,57.88
2017-07-20T02:33:53.107Z,57.05
2017-07-20T02:36:19.778Z,54.03
2017-07-20T02:38:46.452Z,56.72
2017-07-20T02:41:13.119Z,54.75
2017-07-20T02:43:39.791Z,47.08
2017-07-20T02:46:06.456Z,55.53
2017-07-20T02:48:33.127Z,49.15
2017-07-20T02:50:59.808Z,48.42
2017-07-20T02:53:26.475Z,47.47
2017-07-20T02:55:53.140Z,44.83
2017-07-20T02:58:19.803Z,45.42
2017-07-20T03:00:46.465Z,45.75
2017-07-20T03:03:13.132Z,46.40
2017-07-20T03:05:39.800Z,40.83
2017-07-20T03:08:06.469Z,39.90
2017-07-20T03:10:33.135Z,47.72
2017-07-20T03:12:59.801Z,41.50
2017-07-20T03:15:26.473Z,40.05
2017-07-20T03:17:53.140Z,38.97
2017-07-20T03:20:19.835Z,40.47
2017-07-20T03:22:46.505Z,39.67
2017-07-20T03:25:13.179Z,38.75
2017-07-20T03:27:39.876Z,37.20
2017-07-20T03:30:06.541Z,42.70
2017-07-20T03:32:33.231Z,44.13
2017-07-20T03:34:59.897Z,39.00
2017-07-20T03:37:26.598Z,39.88
2017-07-20T03:39:53.263Z,39.88
2017-07-20T03:42:19.951Z,37.72
2017-07-20T03:44:46.615Z,35.30
2017-07-20T03:47:13.316Z,33.00
2017-07-20T03:49:39.988Z,40.25
2017-07-20T03:52:06.919Z,33.80
2017-07-20T03:54:33.587Z,37.92
2017-07-20T03:57:00.292Z,35.83
2017-07-20T03:59:26.957Z,43.53
2017-07-20T04:01:53.651Z,33.60
2017-07-20T04:04:20.319Z,36.28
2017-07-20T04:06:47.003Z,36.65
2017-07-20T04:09:13.676Z,35.05
2017-07-20T04:11:40.367Z,30.08
2017-07-20T04:14:07.036Z,39.90
2017-07-20T04:16:33.739Z,36.85
2017-07-20T04:19:00.408Z,39.88
2017-07-20T04:21:27.100Z,32.15
2017-07-20T04:23:53.768Z,40.78
2017-07-20T04:26:20.460Z,34.85
2017-07-20T04:28:47.124Z,33.45
2017-07-20T04:31:13.818Z,30.67
2017-07-20T04:33:40.484Z,35.35
2017-07-20T04:36:07.151Z,35.20
2017-07-20T04:38:33.835Z,30.20
2017-07-20T04:41:00.499Z,32.78
2017-07-20T04:43:27.171Z,27.77
2017-07-20T04:45:53.844Z,28.87
2017-07-20T04:48:20.515Z,26.25
2017-07-20T04:50:47.186Z,24.00
2017-07-20T04:53:13.887Z,28.20
2017-07-20T04:55:40.559Z,22.85
2017-07-20T04:58:07.350Z,20.88
2017-07-20T05:00:34.029Z,23.27
2017-07-20T05:03:00.732Z,23.83
2017-07-20T05:05:27.398Z,23.12
2017-07-20T05:07:54.099Z,23.12
2017-07-20T05:10:20.776Z,24.50
2017-07-20T05:12:47.484Z,23.83
2017-07-20T05:15:14.161Z,20.02
2017-07-20T05:17:40.859Z,25.30
2017-07-20T05:20:07.545Z,21.90
2017-07-20T05:22:34.243Z,20.73
2017-07-20T05:25:00.916Z,21.17
2017-07-20T05:27:27.621Z,23.62
2017-07-20T05:29:54.299Z,22.80
2017-07-20T05:32:20.993Z,24.20
2017-07-20T05:34:47.663Z,26.50
2017-07-20T05:37:14.356Z,27.87
2017-07-20T05:39:41.035Z,29.10
2017-07-20T05:42:07.771Z,31.25
2017-07-20T05:44:34.447Z,19.60
2017-07-20T05:47:01.155Z,19.95
2017-07-20T05:49:27.827Z,20.30
2017-07-20T05:51:54.520Z,19.67
2017-07-20T05:54:21.184Z,17.00
2017-07-20T05:56:47.843Z,18.13
2017-07-20T05:59:14.608Z,20.80
2017-07-20T06:01:41.267Z,15.37
2017-07-20T06:04:07.936Z,13.63
2017-07-20T06:06:34.603Z,15.00
2017-07-20T06:09:01.268Z,16.23
2017-07-20T06:11:27.933Z,24.03
2017-07-20T06:13:54.603Z,13.87
2017-07-20T06:16:21.273Z,16.97
2017-07-20T06:18:47.931Z,16.13
2017-07-20T06:21:14.608Z,14.17
2017-07-20T06:23:41.275Z,12.67
2017-07-20T06:26:07.937Z,11.60
2017-07-20T06:28:34.627Z,12.27
2017-07-20T06:31:01.286Z,16.40
2017-07-20T06:33:27.983Z,12.93
2017-07-20T06:35:54.647Z,11.87
2017-07-20T06:38:21.333Z,15.63
2017-07-20T06:40:47.995Z,12.93
2017-07-20T06:43:14.685Z,14.43
2017-07-20T06:45:41.348Z,12.13
2017-07-20T06:48:08.044Z,13.90
2017-07-20T06:50:34.704Z,12.93
2017-07-20T06:53:01.391Z,14.30
2017-07-20T06:55:28.051Z,12.97
2017-07-20T06:57:54.751Z,13.20
2017-07-20T07:00:21.411Z,13.90
2017-07-20T07:02:48.088Z,11.03
2017-07-20T07:05:14.747Z,10.97
2017-07-20T07:07:41.415Z,14.57
2017-07-20T07:10:08.079Z,11.40
2017-07-20T07:12:34.748Z,12.67
2017-07-20T07:15:01.407Z,15.93
2017-07-20T07:17:28.074Z,12.70
2017-07-20T07:19:54.735Z,12.80
2017-07-20T07:22:21.399Z,17.90
2017-07-20T07:24:48.060Z,13.70
2017-07-20T07:27:14.728Z,15.13
2017-07-20T07:29:41.391Z,15.70
2017-07-20T07:32:08.059Z,14.63
2017-07-20T07:34:34.724Z,12.63
2017-07-20T07:37:01.392Z,15.07
2017-07-20T07:39:28.056Z,17.20
2017-07-20T07:41:54.739Z,14.50
2017-07-20T07:44:21.409Z,14.63
2017-07-20T07:46:48.088Z,17.00
2017-07-20T07:49:14.756Z,17.70
2017-07-20T07:51:41.423Z,16.47
2017-07-20T07:54:08.084Z,14.70
2017-07-20T07:56:34.748Z,13.10
2017-07-20T07:59:01.422Z,15.60
2017-07-20T08:01:28.092Z,15.20
2017-07-20T08:03:54.793Z,17.95
2017-07-20T08:06:21.467Z,18.08
2017-07-20T08:08:48.179Z,13.43
2017-07-20T08:11:14.847Z,15.25
2017-07-20T08:13:41.524Z,15.55
2017-07-20T08:16:08.197Z,14.70
2017-07-20T08:18:34.867Z,19.08
2017-07-20T08:21:01.544Z,14.02
2017-07-20T08:23:28.216Z,16.20
2017-07-20T08:25:54.892Z,15.38
2017-07-20T08:28:21.564Z,16.05
2017-07-20T08:30:48.236Z,16.92
2017-07-20T08:33:14.910Z,15.15
2017-07-20T08:35:41.583Z,15.13
2017-07-20T08:38:08.254Z,16.90
2017-07-20T08:40:34.927Z,19.30
2017-07-20T08:43:01.740Z,18.05
2017-07-20T08:45:28.415Z,16.42
2017-07-20T08:47:55.088Z,14.90
2017-07-20T08:50:21.763Z,13.98
2017-07-20T08:52:48.435Z,14.55
2017-07-20T08:55:15.108Z,13.48
2017-07-20T08:57:41.783Z,15.88
2017-07-20T09:00:08.460Z,15.38
2017-07-20T09:02:35.136Z,13.48
2017-07-20T09:05:01.818Z,15.25
2017-07-20T09:07:28.487Z,14.90
2017-07-20T09:09:55.164Z,12.68
2017-07-20T09:12:21.853Z,13.83
2017-07-20T09:14:48.550Z,13.03
2017-07-20T09:17:15.211Z,12.33
2017-07-20T09:19:41.901Z,15.27
2017-07-20T09:22:08.560Z,11.60
2017-07-20T09:24:35.235Z,11.30
2017-07-20T09:27:01.894Z,10.90
2017-07-20T09:29:28.563Z,12.20
2017-07-20T09:31:55.256Z,13.00
2017-07-20T09:34:21.927Z,14.90
2017-07-20T09:36:48.615Z,11.77
2017-07-20T09:39:15.276Z,12.13
2017-07-20T09:41:41.966Z,12.37
2017-07-20T09:44:08.622Z,13.97
2017-07-20T09:46:35.314Z,13.37
2017-07-20T09:49:01.979Z,14.33
2017-07-20T09:51:28.664Z,12.90
2017-07-20T09:53:55.325Z,14.17
2017-07-20T09:56:22.016Z,13.50
2017-07-20T09:58:48.756Z,13.00
2017-07-20T10:01:15.444Z,14.50
2017-07-20T10:03:42.108Z,12.50
2017-07-20T10:06:08.793Z,12.57
2017-07-20T10:08:35.459Z,12.50
2017-07-20T10:11:02.160Z,15.23
2017-07-20T10:13:28.827Z,15.00
2017-07-20T10:15:55.519Z,13.90
2017-07-20T10:18:22.184Z,13.23
2017-07-20T10:20:48.872Z,13.93
2017-07-20T10:23:15.539Z,13.40
2017-07-20T10:25:42.223Z,11.70
2017-07-20T10:28:08.886Z,13.37
2017-07-20T10:30:35.575Z,13.63
2017-07-20T10:33:02.246Z,13.20
2017-07-20T10:35:28.928Z,13.97
2017-07-20T10:37:55.599Z,12.63
2017-07-20T10:40:22.263Z,12.40
2017-07-20T10:42:48.930Z,13.00
2017-07-20T10:45:15.592Z,12.37
2017-07-20T10:47:42.259Z,14.10
2017-07-20T10:50:08.926Z,14.17
2017-07-20T10:52:35.592Z,13.87
2017-07-20T10:55:02.264Z,13.60
2017-07-20T10:57:28.940Z,13.03
2017-07-20T10:59:55.603Z,14.83
2017-07-20T11:02:22.302Z,13.30
2017-07-20T11:04:48.986Z,13.07
2017-07-20T11:07:15.671Z,13.13
2017-07-20T11:09:42.339Z,12.80
2017-07-20T11:12:09.130Z,11.60
2017-07-20T11:14:35.799Z,13.37
2017-07-20T11:17:02.486Z,11.23
2017-07-20T11:19:29.155Z,11.20
2017-07-20T11:21:55.839Z,9.67
2017-07-20T11:24:22.497Z,10.90
2017-07-20T11:26:49.183Z,10.00
2017-07-20T11:29:15.844Z,12.07
2017-07-20T11:31:42.523Z,9.77
2017-07-20T11:34:09.193Z,10.27
2017-07-20T11:36:35.888Z,11.40
2017-07-20T11:39:02.552Z,9.97
2017-07-20T11:41:29.244Z,11.33
2017-07-20T11:43:55.907Z,9.90
2017-07-20T11:46:22.595Z,10.80
2017-07-20T11:48:49.258Z,10.03
2017-07-20T11:51:15.924Z,10.03
2017-07-20T11:53:42.579Z,10.13
2017-07-20T11:56:09.236Z,9.53
2017-07-20T11:58:35.887Z,9.90
2017-07-20T12:01:02.546Z,8.90
2017-07-20T12:03:29.244Z,11.50
2017-07-20T12:05:55.900Z,8.20
2017-07-20T12:08:22.559Z,9.20
2017-07-20T12:10:49.209Z,8.50
2017-07-20T12:13:15.867Z,9.40
2017-07-20T12:15:42.528Z,9.47
2017-07-20T12:18:09.184Z,8.07
2017-07-20T12:20:35.843Z,9.00
2017-07-20T12:23:02.508Z,12.43
2017-07-20T12:25:29.165Z,8.43
2017-07-20T12:27:55.849Z,8.53
2017-07-20T12:30:22.505Z,8.10
2017-07-20T12:32:49.183Z,8.80
2017-07-20T12:35:15.844Z,12.57
2017-07-20T12:37:42.527Z,8.80
2017-07-20T12:40:09.180Z,9.30
2017-07-20T12:42:35.867Z,8.77
2017-07-20T12:45:02.516Z,8.97
2017-07-20T12:47:29.170Z,9.67
2017-07-20T12:49:55.824Z,8.70
2017-07-20T12:52:22.483Z,8.20
2017-07-20T12:54:49.135Z,8.60
2017-07-20T12:57:15.795Z,9.00
2017-07-20T12:59:42.471Z,10.00
2017-07-20T13:02:09.136Z,9.40
2017-07-20T13:04:35.787Z,9.40
2017-07-20T13:07:02.444Z,9.40
2017-07-20T13:09:29.103Z,8.57
2017-07-20T13:11:55.763Z,9.47
2017-07-20T13:14:22.416Z,9.40
2017-07-20T13:16:49.074Z,9.53
2017-07-20T13:19:15.727Z,9.50
2017-07-20T13:21:42.379Z,9.63
2017-07-20T13:24:09.044Z,9.53
2017-07-20T13:26:35.704Z,8.83
2017-07-20T13:29:02.360Z,9.57
2017-07-20T13:31:29.021Z,9.40
2017-07-20T13:33:55.679Z,9.90
2017-07-20T13:36:22.668Z,9.83
2017-07-20T13:38:49.349Z,9.80
2017-07-20T13:41:16.011Z,11.20
2017-07-20T13:43:42.705Z,10.13
2017-07-20T13:46:09.363Z,10.30
2017-07-20T13:48:36.055Z,10.60
2017-07-20T13:51:02.727Z,11.10
2017-07-20T13:53:29.420Z,12.60
2017-07-20T13:55:56.087Z,11.77
2017-07-20T13:58:22.758Z,11.57
2017-07-20T14:00:49.424Z,11.73
2017-07-20T14:03:16.088Z,11.27
2017-07-20T14:05:42.756Z,11.53
2017-07-20T14:08:09.428Z,12.20
2017-07-20T14:10:36.100Z,12.10
2017-07-20T14:13:02.782Z,12.20
2017-07-20T14:15:29.449Z,12.40
2017-07-20T14:17:56.108Z,12.87
2017-07-20T14:20:22.775Z,11.87
2017-07-20T14:22:49.447Z,13.17
2017-07-20T14:25:16.112Z,13.50
2017-07-20T14:27:42.775Z,12.37
2017-07-20T14:30:09.439Z,12.50
2017-07-20T14:32:36.390Z,13.03
2017-07-20T14:35:03.063Z,12.03
2017-07-20T14:37:29.727Z,14.57
2017-07-20T14:39:56.396Z,13.50
2017-07-20T14:42:23.059Z,14.10
2017-07-20T14:44:49.730Z,13.33
2017-07-20T14:47:16.404Z,12.80
2017-07-20T14:49:43.066Z,13.57
2017-07-20T14:52:09.740Z,12.80
2017-07-20T14:54:36.433Z,12.50
2017-07-20T14:57:03.111Z,13.00
2017-07-20T14:59:29.820Z,13.20
2017-07-20T15:01:56.486Z,13.40
2017-07-20T15:04:23.152Z,12.87
2017-07-20T15:06:49.824Z,12.00
2017-07-20T15:09:16.492Z,12.30
2017-07-20T15:11:43.163Z,12.17
2017-07-20T15:14:09.828Z,11.40
2017-07-20T15:16:36.519Z,11.67
2017-07-20T15:19:03.183Z,12.20
2017-07-20T15:21:29.848Z,11.37
2017-07-20T15:23:56.524Z,11.37
2017-07-20T15:26:23.223Z,10.67
2017-07-20T15:28:49.887Z,12.27
2017-07-20T15:31:16.576Z,10.33
2017-07-20T15:33:43.239Z,10.53
2017-07-20T15:36:09.924Z,10.80
2017-07-20T15:38:36.659Z,11.50
2017-07-20T15:41:03.344Z,10.30
2017-07-20T15:43:30.012Z,10.00
2017-07-20T15:45:56.703Z,10.40
2017-07-20T15:48:23.364Z,9.83
2017-07-20T15:50:50.047Z,9.97
2017-07-20T15:53:16.711Z,10.00
2017-07-20T15:55:43.399Z,10.20
2017-07-20T15:58:10.071Z,11.43
2017-07-20T16:00:36.775Z,10.70
2017-07-20T16:03:03.438Z,10.77
2017-07-20T16:05:30.098Z,10.50
2017-07-20T16:07:57.042Z,9.83
2017-07-20T16:10:23.695Z,9.50
2017-07-20T16:12:50.388Z,10.27
2017-07-20T16:15:17.053Z,9.93
2017-07-20T16:17:43.742Z,9.00
2017-07-20T16:20:10.412Z,10.30
2017-07-20T16:22:37.098Z,8.23
2017-07-20T16:25:03.762Z,7.73
2017-07-20T16:27:30.443Z,8.70
2017-07-20T16:29:57.096Z,9.40
2017-07-20T16:34:56.968Z,8.80
2017-07-20T16:37:23.653Z,7.80
2017-07-20T16:39:50.316Z,8.20
2017-07-20T16:42:16.999Z,8.60
2017-07-20T16:44:43.664Z,10.03
2017-07-20T16:47:10.347Z,7.10
2017-07-20T16:49:37.016Z,7.17
2017-07-20T16:52:03.699Z,7.87
2017-07-20T16:54:30.356Z,6.13
2017-07-20T16:56:57.038Z,5.57
2017-07-20T16:59:23.693Z,5.10
2017-07-20T17:01:50.401Z,5.40
2017-07-20T17:04:17.060Z,8.70
2017-07-20T17:06:43.743Z,6.00
2017-07-20T17:09:10.403Z,5.93
2017-07-20T17:11:37.067Z,6.13
2017-07-20T17:14:03.741Z,5.63
2017-07-20T17:16:30.395Z,6.70
2017-07-20T17:18:57.052Z,6.67
2017-07-20T17:21:23.715Z,6.57
2017-07-20T17:23:50.369Z,6.30
2017-07-20T17:26:17.040Z,5.33
2017-07-20T17:28:43.696Z,6.27
2017-07-20T17:31:10.347Z,6.17
2017-07-20T17:33:37.028Z,6.30
2017-07-20T17:36:03.725Z,6.80
2017-07-20T17:38:30.403Z,6.60
2017-07-20T17:40:57.055Z,6.23
2017-07-20T17:43:23.737Z,6.80
2017-07-20T17:45:50.396Z,6.63
2017-07-20T17:48:17.075Z,6.13
2017-07-20T17:50:43.730Z,6.70
2017-07-20T17:53:10.439Z,6.60
2017-07-20T17:55:37.096Z,5.97
2017-07-20T17:58:03.775Z,8.10
2017-07-20T18:00:30.423Z,6.00
2017-07-20T18:02:57.116Z,7.03
2017-07-20T18:05:23.775Z,6.70
2017-07-20T18:07:50.471Z,7.90
2017-07-20T18:10:17.136Z,6.30
2017-07-20T18:12:43.827Z,6.23
2017-07-20T18:15:10.496Z,7.50
2017-07-20T18:17:37.155Z,7.10
2017-07-20T18:20:03.811Z,6.47
2017-07-20T18:22:30.475Z,7.53
2017-07-20T18:24:57.145Z,7.53
2017-07-20T18:27:23.799Z,6.60
2017-07-20T18:29:50.463Z,7.40
2017-07-20T18:32:17.123Z,6.67
2017-07-20T18:34:43.776Z,5.80
2017-07-20T18:37:10.431Z,7.57
2017-07-20T18:39:37.093Z,6.87
2017-07-20T18:42:03.755Z,6.40
2017-07-20T18:44:30.783Z,6.23
2017-07-20T18:46:57.476Z,7.00
2017-07-20T18:49:24.167Z,5.70
2017-07-20T18:51:50.840Z,6.80
2017-07-20T18:54:17.534Z,7.67
2017-07-20T18:56:44.196Z,6.70
2017-07-20T18:59:10.876Z,6.10
2017-07-20T19:01:37.535Z,7.57
2017-07-20T19:04:04.223Z,7.13
2017-07-20T19:06:30.893Z,7.18
2017-07-20T19:08:57.595Z,7.80
2017-07-20T19:11:24.260Z,7.20
2017-07-20T19:13:50.954Z,7.72
2017-07-20T19:16:17.617Z,7.20
2017-07-20T19:18:44.279Z,8.20
2017-07-20T19:21:10.947Z,7.28
2017-07-20T19:23:37.611Z,8.73
2017-07-20T19:26:04.280Z,7.87
2017-07-20T19:28:30.944Z,8.68
2017-07-20T19:30:57.620Z,9.20
2017-07-20T19:33:24.288Z,12.13
2017-07-20T19:35:50.959Z,9.07
2017-07-20T19:38:17.638Z,8.40
2017-07-20T19:40:44.307Z,10.02
2017-07-20T19:43:10.981Z,8.90
2017-07-20T19:45:37.647Z,8.32
2017-07-20T19:48:04.333Z,9.63
2017-07-20T19:50:30.999Z,9.07
2017-07-20T19:52:57.688Z,9.05
2017-07-20T19:55:24.363Z,10.07
2017-07-20T19:57:51.024Z,8.70
2017-07-20T20:00:17.696Z,10.73
2017-07-20T20:02:44.354Z,10.93
2017-07-20T20:05:11.024Z,9.10
2017-07-20T20:07:37.687Z,10.35
2017-07-20T20:10:04.356Z,10.40
2017-07-20T20:12:31.029Z,9.43
2017-07-20T20:14:57.710Z,10.13
2017-07-20T20:17:24.375Z,12.13
2017-07-20T20:19:51.064Z,10.75
2017-07-20T20:22:17.738Z,11.63
2017-07-20T20:24:44.427Z,10.20
2017-07-20T20:27:11.092Z,10.15
2017-07-20T20:29:37.768Z,10.20
2017-07-20T20:32:04.430Z,9.02
2017-07-20T20:34:31.105Z,10.68
2017-07-20T20:36:57.776Z,12.23
2017-07-20T20:39:24.455Z,11.68
2017-07-20T20:41:51.148Z,10.98
2017-07-20T20:44:17.810Z,10.80
2017-07-20T20:46:44.484Z,12.00
2017-07-20T20:49:11.155Z,11.63
2017-07-20T20:51:37.829Z,56.20
2017-07-20T20:54:04.505Z,108.57
2017-07-20T20:56:31.187Z,684.05
2017-07-20T20:58:57.867Z,842.75
2017-07-20T21:01:24.557Z,1121.00
2017-07-20T21:03:51.231Z,962.95
2017-07-20T21:06:17.906Z,886.70
2017-07-20T21:08:44.595Z,745.03
2017-07-20T21:11:11.617Z,643.70
2017-07-20T21:13:38.291Z,514.92
2017-07-20T21:16:04.967Z,467.37
2017-07-20T21:18:31.652Z,296.60
2017-07-20T21:20:58.334Z,250.13
2017-07-20T21:23:25.015Z,317.67
2017-07-20T21:25:51.695Z,167.90
2017-07-20T21:28:18.379Z,165.82
2017-07-20T21:30:45.060Z,218.98
2017-07-20T21:33:11.734Z,182.85
2017-07-20T21:35:38.415Z,176.45
2017-07-20T21:38:05.109Z,173.95
2017-07-20T21:40:31.786Z,120.35
2017-07-20T21:42:58.460Z,160.48
2017-07-20T21:45:25.131Z,115.55
2017-07-20T21:47:51.820Z,116.18
2017-07-20T21:50:18.500Z,127.87
2017-07-20T21:52:45.200Z,104.68
2017-07-20T21:55:11.869Z,83.75
2017-07-20T21:57:38.563Z,82.62
2017-07-20T22:00:05.226Z,75.22
2017-07-20T22:02:31.920Z,61.90
2017-07-20T22:04:58.587Z,59.72
2017-07-20T22:07:25.276Z,46.28
2017-07-20T22:09:51.956Z,39.13
2017-07-20T22:12:18.647Z,25.08
2017-07-20T22:14:45.325Z,17.62
2017-07-20T22:17:12.017Z,14.05
2017-07-20T22:19:38.683Z,10.38
2017-07-20T22:22:05.368Z,12.13
2017-07-20T22:24:32.852Z,10.68
2017-07-20T22:26:59.546Z,10.00
2017-07-20T22:29:26.219Z,10.35
2017-07-20T22:31:52.916Z,14.15
2017-07-20T22:34:19.584Z,9.95
2017-07-20T22:36:46.267Z,8.88
2017-07-20T22:39:12.923Z,9.77
2017-07-20T22:41:39.611Z,9.35
2017-07-20T22:44:06.267Z,14.25
2017-07-20T22:46:32.952Z,10.32
2017-07-20T22:48:59.603Z,9.73
2017-07-20T22:51:26.259Z,9.18
2017-07-20T22:53:52.920Z,8.43
2017-07-20T22:56:19.580Z,8.55
2017-07-20T22:58:46.240Z,7.62
2017-07-20T23:01:12.904Z,6.53
2017-07-20T23:03:39.566Z,6.95
2017-07-20T23:06:06.224Z,6.22
2017-07-20T23:08:32.883Z,6.18
2017-07-20T23:10:59.551Z,6.43
2017-07-20T23:13:26.211Z,9.15
2017-07-20T23:15:52.870Z,8.15
2017-07-20T23:18:19.595Z,5.75
2017-07-20T23:20:46.250Z,7.30
2017-07-20T23:23:12.940Z,7.50
2017-07-20T23:25:39.608Z,5.80
2017-07-20T23:28:06.286Z,5.82
2017-07-20T23:30:32.949Z,9.68
2017-07-20T23:32:59.627Z,6.85
2017-07-20T23:35:26.305Z,9.30
2017-07-20T23:37:53.003Z,8.00
2017-07-20T23:40:19.660Z,7.40
2017-07-20T23:42:46.347Z,6.43
2017-07-20T23:45:13.012Z,6.85
2017-07-20T23:47:39.695Z,6.62
2017-07-20T23:50:06.356Z,6.97
2017-07-20T23:52:33.039Z,7.25
2017-07-20T23:54:59.695Z,10.25
2017-07-20T23:57:26.375Z,8.60
2017-07-20T23:59:53.040Z,8.05
